Time;durP1;ratioP1;P1;durP2;ratioP2;P2;SDS_P1;SDS_P2;PMS_P1;PMS_P2;Temp;Humidity;BMP_temperature;BMP_pressure;BME280_temperature;BME280_humidity;BME280_pressure;Samples;Min_cycle;Max_cycle;Signal;HPM_P1;HPM_P2
2022/09/15 00:01:51;;;;;;;1.25;1.15;;;23.90;57.60;;;;;;5063420;28;20029;-62
2022/09/15 00:04:17;;;;;;;0.90;0.90;;;23.90;57.60;;;;;;5063494;28;20017;-62
2022/09/15 00:06:42;;;;;;;1.10;0.90;;;23.90;57.60;;;;;;5063689;28;20021;-62
2022/09/15 00:09:08;;;;;;;0.90;0.90;;;23.80;57.60;;;;;;5063443;28;20313;-61
2022/09/15 00:11:36;;;;;;;1.02;1.00;;;23.90;57.70;;;;;;5063257;28;20060;-61
2022/09/15 00:14:04;;;;;;;1.15;1.10;;;23.80;58.20;;;;;;5063366;28;20017;-62
2022/09/15 00:16:31;;;;;;;0.93;0.93;;;23.90;57.70;;;;;;5062877;28;20051;-60
2022/09/15 00:18:58;;;;;;;1.23;1.13;;;23.90;57.70;;;;;;5063338;28;20212;-61
2022/09/15 00:21:31;;;;;;;1.13;0.90;;;23.80;57.70;;;;;;5063244;28;20025;-62
2022/09/15 00:23:59;;;;;;;0.90;0.90;;;23.80;57.70;;;;;;5063318;28;20344;-61
2022/09/15 00:26:29;;;;;;;1.08;1.08;;;23.80;57.70;;;;;;5063522;28;20021;-60
2022/09/15 00:28:56;;;;;;;1.75;1.38;;;23.90;57.70;;;;;;5045470;28;20204;-61
2022/09/15 00:31:24;;;;;;;1.00;0.82;;;23.80;57.60;;;;;;5063234;28;20092;-61
2022/09/15 00:33:52;;;;;;;1.30;1.20;;;23.80;57.70;;;;;;5063260;28;20182;-61
2022/09/15 00:36:18;;;;;;;;;;;23.80;57.70;;;;;;5063582;28;20025;-61
2022/09/15 00:38:45;;;;;;;1.63;1.30;;;23.80;57.70;;;;;;5063136;28;20092;-61
2022/09/15 00:41:18;;;;;;;1.30;1.10;;;23.80;57.70;;;;;;5063322;28;20021;-62
2022/09/15 00:44:25;;;;;;;1.00;0.90;;;23.80;57.60;;;;;;5063112;28;20080;-61
2022/09/15 00:46:53;;;;;;;0.70;0.70;;;23.80;57.70;;;;;;5062891;28;20021;-62
2022/09/15 00:49:32;;;;;;;1.23;1.05;;;23.80;57.70;;;;;;5063066;28;20063;-62
2022/09/15 00:52:09;;;;;;;1.30;1.10;;;23.80;57.70;;;;;;5063079;28;20359;-62
2022/09/15 00:54:47;;;;;;;0.73;0.73;;;23.80;57.70;;;;;;5062992;28;20025;-62
2022/09/15 00:57:33;;;;;;;0.98;0.90;;;23.80;57.60;;;;;;5045258;28;20044;-62
2022/09/15 01:00:01;;;;;;;1.20;1.02;;;23.80;57.60;;;;;;5062439;28;20101;-62
2022/09/15 01:02:28;;;;;;;;;;;23.80;57.70;;;;;;5063287;28;20021;-62
2022/09/15 01:04:56;;;;;;;1.45;1.05;;;23.80;57.70;;;;;;5062892;28;19908;-62
2022/09/15 01:07:29;;;;;;;1.58;1.10;;;23.80;57.70;;;;;;5062916;28;20023;-63
2022/09/15 01:10:01;;;;;;;1.05;0.98;;;23.80;57.70;;;;;;5062685;28;20036;-63
2022/09/15 01:12:27;;;;;;;1.10;1.00;;;23.80;57.70;;;;;;5062788;28;20023;-62
2022/09/15 01:14:53;;;;;;;1.00;0.90;;;23.80;57.70;;;;;;5062748;28;20041;-61
2022/09/15 01:17:33;;;;;;;1.23;1.13;;;23.80;57.70;;;;;;5062766;28;20051;-62
2022/09/15 01:20:05;;;;;;;0.88;0.85;;;23.80;57.70;;;;;;5062792;28;20060;-62
2022/09/15 01:23:12;;;;;;;1.20;1.10;;;23.80;57.70;;;;;;5062653;28;20064;-61
2022/09/15 01:26:16;;;;;;;1.05;1.00;;;23.80;57.70;;;;;;5062760;28;20309;-61
2022/09/15 01:28:54;;;;;;;0.80;0.80;;;23.80;57.70;;;;;;5063380;28;20112;-62
2022/09/15 01:34:35;;;;;;;0.93;0.90;;;23.80;57.70;;;;;;5066217;28;20065;-61
2022/09/15 01:37:14;;;;;;;0.98;0.98;;;23.80;57.70;;;;;;5066145;28;20027;-61
2022/09/15 01:39:44;;;;;;;1.08;0.98;;;23.80;57.70;;;;;;5066075;28;20259;-62
2022/09/15 01:42:14;;;;;;;1.17;1.08;;;23.80;57.70;;;;;;5065925;28;20028;-60
2022/09/15 01:44:43;;;;;;;0.80;0.80;;;23.80;57.70;;;;;;5066003;28;20020;-62
2022/09/15 01:47:12;;;;;;;1.73;1.20;;;23.80;57.70;;;;;;5065967;28;20017;-62
2022/09/15 01:49:59;;;;;;;1.83;1.40;;;23.80;57.70;;;;;;5065859;28;20017;-62
2022/09/15 01:52:25;;;;;;;1.25;0.70;;;23.80;57.70;;;;;;5065894;28;20017;-61
2022/09/15 01:54:56;;;;;;;1.27;0.88;;;23.70;58.30;;;;;;5066048;28;20023;-62
2022/09/15 01:57:22;;;;;;;0.73;0.70;;;23.80;57.70;;;;;;5065797;28;20088;-61
2022/09/15 01:59:54;;;;;;;1.27;1.17;;;23.80;57.70;;;;;;5065673;28;20229;-61
2022/09/15 02:02:29;;;;;;;1.23;1.00;;;23.70;57.70;;;;;;5065573;28;20021;-62
2022/09/15 02:05:10;;;;;;;0.90;0.80;;;23.70;57.70;;;;;;5065654;28;20021;-62
2022/09/15 02:07:55;;;;;;;2.45;1.00;;;23.70;57.70;;;;;;5065563;28;20428;-61
2022/09/15 02:10:45;;;;;;;1.30;1.20;;;23.80;57.70;;;;;;5065393;28;20102;-61
2022/09/15 02:13:17;;;;;;;0.80;0.80;;;23.70;57.70;;;;;;5065475;28;20036;-61
2022/09/15 02:15:56;;;;;;;2.67;0.90;;;23.70;57.70;;;;;;5065450;28;20066;-62
2022/09/15 02:18:44;;;;;;;1.33;1.00;;;23.70;57.70;;;;;;5065384;28;20017;-61
2022/09/15 02:21:28;;;;;;;1.55;1.40;;;23.80;57.70;;;;;;5047819;28;20040;-62
2022/09/15 02:24:02;;;;;;;1.23;0.90;;;23.70;57.60;;;;;;5065256;28;20209;-62
2022/09/15 02:26:30;;;;;;;1.42;1.30;;;23.70;57.70;;;;;;5065172;28;20083;-61
2022/09/15 02:29:01;;;;;;;1.60;1.30;;;23.70;57.70;;;;;;5065152;28;20043;-61
2022/09/15 02:31:29;;;;;;;1.23;1.13;;;23.70;57.70;;;;;;5065125;28;20071;-62
2022/09/15 02:34:02;;;;;;;1.23;1.13;;;23.70;57.70;;;;;;5065069;28;20208;-62
2022/09/15 02:36:29;;;;;;;0.82;0.82;;;23.70;57.70;;;;;;5065014;28;20088;-62
2022/09/15 02:39:04;;;;;;;1.58;0.90;;;23.70;57.70;;;;;;5064665;28;20024;-62
2022/09/15 02:41:32;;;;;;;0.80;0.80;;;23.80;57.80;;;;;;5064834;28;20305;-61
2022/09/15 02:43:57;;;;;;;1.33;1.10;;;23.70;57.70;;;;;;5064881;28;20027;-62
2022/09/15 02:46:23;;;;;;;1.58;1.10;;;23.70;57.70;;;;;;5064801;28;20017;-62
2022/09/15 02:48:49;;;;;;;1.10;1.00;;;23.70;57.70;;;;;;5064795;28;20017;-62
2022/09/15 02:51:17;;;;;;;1.20;1.10;;;23.70;57.70;;;;;;5064973;28;20020;-61
2022/09/15 02:53:45;;;;;;;2.85;0.98;;;23.70;57.70;;;;;;5064656;28;20020;-61
2022/09/15 02:56:11;;;;;;;1.05;0.98;;;23.70;57.70;;;;;;5046830;28;20047;-61
2022/09/15 02:58:37;;;;;;;0.93;0.82;;;23.80;57.70;;;;;;5064598;28;20217;-61
2022/09/15 03:01:04;;;;;;;1.17;1.00;;;23.70;57.70;;;;;;5064452;28;20016;-61
2022/09/15 03:03:31;;;;;;;1.00;0.90;;;23.70;57.70;;;;;;5064480;28;20017;-61
2022/09/15 03:06:16;;;;;;;0.85;0.85;;;23.70;57.70;;;;;;5064396;28;20019;-62
2022/09/15 03:08:51;;;;;;;0.70;0.70;;;23.70;57.70;;;;;;5064406;28;20012;-61
2022/09/15 03:11:19;;;;;;;0.75;0.75;;;23.70;57.70;;;;;;5064134;28;20063;-61
2022/09/15 03:13:45;;;;;;;0.90;0.90;;;23.70;57.70;;;;;;5064293;28;20017;-61
2022/09/15 03:16:15;;;;;;;1.45;1.05;;;23.70;57.70;;;;;;5064218;28;20296;-62
2022/09/15 03:18:41;;;;;;;1.05;0.95;;;23.70;57.70;;;;;;5064160;28;20020;-62
2022/09/15 03:21:12;;;;;;;0.90;0.90;;;23.70;57.70;;;;;;5064095;28;20025;-61
2022/09/15 03:23:38;;;;;;;1.15;1.05;;;23.70;57.70;;;;;;5064116;28;20248;-61
2022/09/15 03:26:04;;;;;;;0.82;0.82;;;23.70;57.70;;;;;;5064071;28;20013;-62
2022/09/15 03:28:31;;;;;;;2.08;1.00;;;23.70;57.70;;;;;;5064026;28;20071;-61
2022/09/15 03:30:57;;;;;;;0.98;0.98;;;23.70;57.70;;;;;;5063971;28;20066;-61
2022/09/15 03:33:23;;;;;;;0.77;0.70;;;23.70;57.70;;;;;;5063917;28;20024;-62
2022/09/15 03:35:50;;;;;;;1.40;1.02;;;23.70;57.80;;;;;;5063925;28;20028;-62
2022/09/15 03:38:16;;;;;;;0.98;0.80;;;23.70;57.70;;;;;;5046047;28;20029;-61
2022/09/15 03:40:42;;;;;;;1.25;1.15;;;23.70;57.70;;;;;;5063782;28;20036;-61
2022/09/15 03:43:09;;;;;;;1.77;1.00;;;23.70;57.70;;;;;;5063801;28;20024;-61
2022/09/15 03:45:36;;;;;;;0.93;0.90;;;23.70;57.80;;;;;;5063747;28;20017;-62
2022/09/15 03:48:04;;;;;;;0.80;0.80;;;23.70;57.70;;;;;;5063761;28;20016;-62
2022/09/15 03:50:31;;;;;;;0.90;0.90;;;23.70;57.70;;;;;;5063275;28;20017;-60
2022/09/15 03:53:01;;;;;;;1.30;0.98;;;23.70;57.80;;;;;;5063434;28;20024;-61
2022/09/15 03:55:27;;;;;;;1.00;1.00;;;23.70;57.70;;;;;;5063627;28;20305;-61
2022/09/15 03:57:53;;;;;;;1.00;0.80;;;23.70;57.70;;;;;;5063556;28;20035;-61
2022/09/15 04:00:20;;;;;;;1.17;0.80;;;23.70;57.80;;;;;;5063450;28;20297;-62
2022/09/15 04:02:45;;;;;;;1.33;1.10;;;23.70;57.80;;;;;;5063520;28;20090;-62
2022/09/15 04:05:12;;;;;;;0.95;0.95;;;23.70;57.80;;;;;;5063525;28;20017;-61
2022/09/15 04:07:39;;;;;;;1.15;1.02;;;23.70;57.80;;;;;;5063419;28;20036;-62
2022/09/15 04:10:06;;;;;;;1.35;1.25;;;23.70;57.80;;;;;;5063290;28;20139;-61
2022/09/15 04:12:33;;;;;;;0.90;0.90;;;23.70;57.80;;;;;;5063375;28;20025;-61
2022/09/15 04:14:59;;;;;;;0.80;0.80;;;23.70;57.80;;;;;;5063352;28;20028;-62
2022/09/15 04:17:26;;;;;;;0.85;0.85;;;23.70;57.80;;;;;;5063389;28;20055;-61
2022/09/15 04:19:52;;;;;;;1.02;0.80;;;23.70;57.80;;;;;;5063322;28;20025;-61
2022/09/15 04:22:18;;;;;;;0.90;0.90;;;23.70;57.80;;;;;;5063205;28;20021;-61
2022/09/15 04:24:44;;;;;;;1.02;0.85;;;23.60;57.80;;;;;;5063291;28;20258;-61
2022/09/15 04:27:10;;;;;;;1.05;0.98;;;23.70;57.80;;;;;;5063266;28;20013;-62
2022/09/15 04:29:36;;;;;;;0.82;0.82;;;23.70;57.80;;;;;;5063251;28;20028;-62
2022/09/15 04:32:02;;;;;;;1.05;0.95;;;23.70;57.80;;;;;;5063140;28;20024;-62
2022/09/15 04:34:27;;;;;;;0.88;0.88;;;23.70;57.80;;;;;;5063181;28;20025;-62
2022/09/15 04:36:53;;;;;;;1.20;1.10;;;23.60;57.80;;;;;;5063184;28;20040;-62
2022/09/15 04:39:19;;;;;;;1.17;1.08;;;23.70;57.80;;;;;;5063113;28;20029;-62
2022/09/15 04:41:45;;;;;;;0.88;0.88;;;23.70;57.80;;;;;;5063034;28;20186;-62
2022/09/15 04:44:11;;;;;;;1.25;1.15;;;23.70;57.80;;;;;;5063117;28;20028;-62
2022/09/15 04:46:36;;;;;;;1.00;0.90;;;23.60;57.80;;;;;;5063051;28;20359;-63
2022/09/15 04:49:02;;;;;;;0.80;0.80;;;23.60;57.80;;;;;;5063079;28;20024;-62
2022/09/15 04:51:28;;;;;;;0.80;0.80;;;23.60;57.80;;;;;;5063013;28;20025;-61
2022/09/15 04:53:54;;;;;;;0.80;0.80;;;23.60;57.90;;;;;;5063015;28;20028;-61
2022/09/15 04:56:22;;;;;;;0.93;0.88;;;23.60;57.80;;;;;;5062951;28;20032;-61
2022/09/15 04:58:53;;;;;;;1.15;1.05;;;23.60;57.90;;;;;;5062938;28;20025;-62
2022/09/15 05:01:24;;;;;;;1.00;0.90;;;23.70;57.90;;;;;;5063115;28;20071;-61
2022/09/15 05:03:51;;;;;;;0.70;0.70;;;23.60;57.80;;;;;;5066226;28;20021;-62
2022/09/15 05:06:22;;;;;;;1.08;1.05;;;23.60;57.80;;;;;;5066727;28;20013;-62
2022/09/15 05:08:54;;;;;;;0.75;0.75;;;23.60;57.80;;;;;;5066661;28;20013;-61
2022/09/15 05:11:20;;;;;;;0.90;0.77;;;23.70;57.90;;;;;;5066390;28;20106;-62
2022/09/15 05:13:47;;;;;;;0.80;0.80;;;23.60;57.80;;;;;;5066574;28;20036;-61
2022/09/15 05:16:19;;;;;;;1.17;0.95;;;23.60;57.80;;;;;;5066491;28;20054;-62
2022/09/15 05:18:46;;;;;;;1.05;0.93;;;23.60;57.90;;;;;;5066859;28;20020;-61
2022/09/15 05:21:14;;;;;;;1.02;1.00;;;23.60;57.90;;;;;;5066333;28;20048;-62
2022/09/15 05:23:40;;;;;;;2.20;0.90;;;23.60;57.90;;;;;;5066430;28;20025;-62
2022/09/15 05:26:10;;;;;;;0.80;0.80;;;23.60;57.90;;;;;;5066365;28;20036;-62
2022/09/15 05:28:36;;;;;;;0.75;0.70;;;23.60;57.90;;;;;;5066338;28;20028;-62
2022/09/15 05:31:09;;;;;;;1.25;1.00;;;23.60;57.90;;;;;;5066229;28;20074;-62
2022/09/15 05:33:35;;;;;;;0.80;0.80;;;23.70;57.90;;;;;;5066265;28;20016;-62
2022/09/15 05:36:01;;;;;;;1.05;0.95;;;23.60;57.90;;;;;;5066196;28;20061;-62
2022/09/15 05:38:31;;;;;;;0.75;0.75;;;23.60;57.90;;;;;;5066145;28;20024;-62
2022/09/15 05:41:07;;;;;;;0.93;0.93;;;23.60;57.90;;;;;;5066005;28;20358;-62
2022/09/15 05:43:35;;;;;;;0.95;0.80;;;23.60;57.90;;;;;;5066050;28;20059;-62
2022/09/15 05:46:01;;;;;;;0.68;0.68;;;23.60;57.90;;;;;;5066295;28;20013;-62
2022/09/15 05:48:27;;;;;;;0.90;0.90;;;23.70;57.90;;;;;;5065941;28;20305;-62
2022/09/15 05:50:55;;;;;;;0.88;0.85;;;23.60;57.90;;;;;;5065872;28;20027;-62
2022/09/15 05:53:22;;;;;;;0.70;0.70;;;23.70;57.90;;;;;;5065882;28;20265;-63
2022/09/15 05:55:48;;;;;;;0.90;0.90;;;23.70;57.90;;;;;;5065821;28;20025;-62
2022/09/15 05:58:14;;;;;;;0.82;0.82;;;23.70;57.90;;;;;;5065769;28;20195;-63
2022/09/15 06:00:41;;;;;;;0.88;0.88;;;23.60;57.90;;;;;;5065614;28;20013;-63
2022/09/15 06:03:13;;;;;;;1.15;0.90;;;23.70;57.90;;;;;;5065667;28;20340;-62
2022/09/15 06:05:39;;;;;;;0.70;0.70;;;23.70;57.80;;;;;;5065644;28;20021;-63
2022/09/15 06:08:04;;;;;;;0.85;0.85;;;23.70;57.80;;;;;;5065575;28;20039;-62
2022/09/15 06:10:31;;;;;;;1.00;0.90;;;23.70;57.70;;;;;;5065360;28;20104;-62
2022/09/15 06:12:57;;;;;;;0.90;0.90;;;23.70;57.80;;;;;;5065478;28;20009;-62
2022/09/15 06:15:23;;;;;;;1.17;1.05;;;23.70;57.80;;;;;;5065359;28;20017;-62
2022/09/15 06:17:49;;;;;;;1.00;0.90;;;23.70;57.80;;;;;;5065382;28;20204;-62
2022/09/15 06:20:17;;;;;;;0.90;0.90;;;23.70;57.80;;;;;;5065332;28;20058;-62
2022/09/15 06:22:44;;;;;;;0.70;0.70;;;23.70;57.80;;;;;;5065250;28;20024;-61
2022/09/15 06:25:12;;;;;;;0.90;0.90;;;23.70;57.80;;;;;;5065239;28;20264;-61
2022/09/15 06:27:38;;;;;;;0.85;0.80;;;23.70;57.80;;;;;;5065250;28;20076;-62
2022/09/15 06:30:05;;;;;;;1.15;1.08;;;23.70;57.80;;;;;;5065153;28;20050;-61
2022/09/15 06:32:31;;;;;;;1.70;1.02;;;23.70;57.80;;;;;;5065106;28;20021;-61
2022/09/15 06:34:57;;;;;;;0.85;0.85;;;23.70;58.50;;;;;;5065053;28;20213;-61
2022/09/15 06:37:23;;;;;;;1.00;0.90;;;23.60;59.60;;;;;;5066249;28;20052;-59
2022/09/15 06:39:49;;;;;;;0.88;0.70;;;23.70;59.40;;;;;;5084515;28;20016;-59
2022/09/15 06:42:19;;;;;;;2.05;1.20;;;23.70;59.30;;;;;;5084481;28;20032;-61
2022/09/15 06:44:46;;;;;;;1.20;1.10;;;23.70;59.10;;;;;;5084117;28;20019;-62
2022/09/15 06:47:14;;;;;;;1.25;0.90;;;23.70;59.10;;;;;;5084532;28;20027;-61
2022/09/15 06:49:40;;;;;;;1.88;0.90;;;23.70;59.10;;;;;;5067200;28;20016;-60
2022/09/15 06:52:06;;;;;;;1.27;0.90;;;23.70;59.00;;;;;;5084343;28;20059;-61
2022/09/15 06:54:31;;;;;;;1.60;0.73;;;23.70;59.10;;;;;;5084436;28;20207;-61
2022/09/15 06:56:57;;;;;;;1.05;1.02;;;23.70;59.60;;;;;;5084392;28;20036;-60
2022/09/15 06:59:24;;;;;;;1.00;0.93;;;23.80;59.60;;;;;;5084205;28;20028;-61
2022/09/15 07:01:54;;;;;;;1.42;1.10;;;23.80;59.50;;;;;;5084152;28;20020;-60
2022/09/15 07:04:20;;;;;;;1.88;0.98;;;23.80;59.70;;;;;;5084242;28;20017;-60
2022/09/15 07:06:47;;;;;;;1.88;0.93;;;23.80;59.70;;;;;;5083747;28;20012;-59
2022/09/15 07:09:13;;;;;;;1.15;1.00;;;23.80;60.10;;;;;;5084057;28;20027;-59
2022/09/15 07:11:40;;;;;;;2.40;0.90;;;23.90;60.20;;;;;;5083937;28;20041;-60
2022/09/15 07:14:06;;;;;;;1.13;1.02;;;23.90;60.10;;;;;;5084038;28;20122;-58
2022/09/15 07:16:33;;;;;;;1.58;1.13;;;23.80;60.40;;;;;;5083948;28;20092;-58
2022/09/15 07:19:02;;;;;;;2.47;1.50;;;23.90;60.50;;;;;;5083837;28;20028;-59
2022/09/15 07:21:28;;;;;;;2.45;1.83;;;23.80;60.90;;;;;;5083833;28;20017;-58
2022/09/15 07:23:56;;;;;;;1.33;1.17;;;23.90;61.00;;;;;;5083869;28;20209;-59
2022/09/15 07:26:23;;;;;;;;;;;23.90;61.40;;;;;;5083424;28;20101;-59
2022/09/15 07:28:54;;;;;;;1.90;0.80;;;23.90;61.80;;;;;;5083947;28;19970;-60
2022/09/15 07:31:23;;;;;;;0.80;0.77;;;23.90;62.60;;;;;;5083796;28;20043;-60
2022/09/15 07:33:49;;;;;;;2.72;1.27;;;23.90;61.60;;;;;;5083927;28;20091;-59
2022/09/15 07:36:22;;;;;;;2.63;1.05;;;23.90;61.20;;;;;;5083596;28;20013;-59
2022/09/15 07:38:49;;;;;;;1.00;0.90;;;24.00;61.20;;;;;;5083001;28;20024;-60
2022/09/15 07:41:27;;;;;;;1.40;1.20;;;24.00;61.20;;;;;;5083438;28;20025;-61
2022/09/15 07:43:56;;;;;;;1.20;1.10;;;24.00;61.30;;;;;;5083605;28;20016;-61
2022/09/15 07:46:24;;;;;;;1.38;1.10;;;24.00;61.40;;;;;;5083365;28;20066;-60
2022/09/15 07:48:52;;;;;;;1.77;1.30;;;24.00;61.40;;;;;;5083344;28;20020;-60
2022/09/15 07:51:18;;;;;;;1.33;1.17;;;24.00;61.60;;;;;;5083453;28;20016;-60
2022/09/15 07:53:45;;;;;;;1.10;1.05;;;24.00;61.80;;;;;;5099520;28;20319;-59
2022/09/15 07:56:11;;;;;;;2.33;0.88;;;24.00;62.10;;;;;;5103648;28;20091;-59
2022/09/15 07:58:37;;;;;;;1.67;0.98;;;24.00;62.20;;;;;;5103478;28;20020;-59
2022/09/15 08:01:05;;;;;;;1.10;1.00;;;24.00;62.50;;;;;;5103443;28;20040;-59
2022/09/15 08:03:31;;;;;;;1.33;1.23;;;24.00;62.70;;;;;;5103322;28;20084;-59
2022/09/15 08:06:01;;;;;;;2.15;0.88;;;24.00;62.80;;;;;;5104073;28;20023;-60
2022/09/15 08:08:28;;;;;;;1.38;1.00;;;24.00;63.00;;;;;;5103357;28;20039;-60
2022/09/15 08:10:54;;;;;;;1.15;1.00;;;24.00;63.20;;;;;;5098640;28;20055;-60
2022/09/15 08:13:20;;;;;;;1.35;1.25;;;24.00;63.40;;;;;;5088554;28;20304;-58
2022/09/15 08:15:47;;;;;;;3.53;0.90;;;24.10;63.80;;;;;;5083059;28;20088;-59
2022/09/15 08:18:13;;;;;;;4.03;1.30;;;24.00;64.10;;;;;;5094407;28;20019;-59
2022/09/15 08:20:40;;;;;;;1.67;0.82;;;23.90;59.70;;;;;;5103307;28;20039;-59
2022/09/15 08:23:06;;;;;;;1.48;0.80;;;24.00;59.70;;;;;;5103166;28;20081;-58
2022/09/15 08:25:32;;;;;;;1.50;1.20;;;24.00;59.80;;;;;;5101989;28;20026;-58
2022/09/15 08:27:58;;;;;;;1.48;1.10;;;24.00;59.60;;;;;;5093968;28;20008;-58
2022/09/15 08:30:25;;;;;;;2.50;1.02;;;24.00;59.70;;;;;;5082923;28;20020;-59
2022/09/15 08:32:51;;;;;;;1.48;1.15;;;24.00;59.50;;;;;;5083107;28;20095;-59
2022/09/15 08:35:18;;;;;;;1.13;1.05;;;24.00;59.50;;;;;;5082886;28;20021;-59
2022/09/15 08:37:44;;;;;;;2.05;1.08;;;24.00;59.60;;;;;;5084689;28;20016;-59
2022/09/15 08:40:18;;;;;;;3.05;1.10;;;24.00;59.50;;;;;;5086954;28;20020;-58
2022/09/15 08:42:47;;;;;;;1.35;0.90;;;24.00;59.50;;;;;;5087095;28;20024;-58
2022/09/15 08:45:29;;;;;;;1.42;0.88;;;24.00;59.50;;;;;;5086331;28;20263;-58
2022/09/15 08:48:02;;;;;;;4.63;1.13;;;24.00;59.30;;;;;;5086918;28;20196;-58
2022/09/15 08:50:51;;;;;;;1.33;1.20;;;24.00;59.40;;;;;;5086862;28;20020;-58
2022/09/15 08:53:28;;;;;;;1.05;0.98;;;24.00;59.40;;;;;;5087215;28;20086;-57
2022/09/15 08:55:57;;;;;;;1.58;1.13;;;24.10;59.50;;;;;;5086984;28;20078;-58
2022/09/15 08:58:27;;;;;;;1.10;0.90;;;24.10;59.40;;;;;;5086694;28;20012;-58
2022/09/15 09:01:07;;;;;;;1.67;1.13;;;24.10;59.30;;;;;;5086506;28;20052;-57
2022/09/15 09:03:47;;;;;;;0.80;0.80;;;24.10;59.30;;;;;;5086358;28;20016;-58
2022/09/15 09:06:34;;;;;;;2.10;0.98;;;24.10;59.30;;;;;;5086756;28;20081;-58
2022/09/15 09:09:22;;;;;;;1.30;1.10;;;24.00;59.40;;;;;;5085465;28;20020;-59
2022/09/15 09:11:54;;;;;;;;;;;24.00;59.50;;;;;;5086755;28;20236;-58
2022/09/15 09:14:46;;;;;;;2.15;0.90;;;24.00;59.60;;;;;;5086161;28;19907;-58
2022/09/15 09:17:38;;;;;;;3.38;0.90;;;24.00;59.70;;;;;;5086318;28;20078;-59
2022/09/15 09:20:14;;;;;;;2.15;1.20;;;24.10;59.70;;;;;;5086334;28;20020;-59
2022/09/15 09:22:44;;;;;;;1.35;0.90;;;24.00;59.60;;;;;;5085578;28;20028;-59
2022/09/15 09:25:15;;;;;;;2.45;0.80;;;24.00;59.50;;;;;;5086041;28;20086;-59
2022/09/15 09:27:42;;;;;;;2.70;0.80;;;24.00;59.40;;;;;;5086154;28;20303;-59
2022/09/15 09:30:21;;;;;;;2.38;1.15;;;24.10;59.50;;;;;;5086297;28;20084;-60
2022/09/15 09:33:10;;;;;;;3.75;1.08;;;24.10;59.40;;;;;;5085449;28;20024;-59
2022/09/15 09:35:44;;;;;;;2.38;1.23;;;24.10;59.50;;;;;;5085956;28;20020;-59
2022/09/15 09:38:24;;;;;;;0.88;0.60;;;24.10;59.50;;;;;;5096660;28;20315;-58
2022/09/15 09:40:50;;;;;;;2.58;1.08;;;24.10;59.40;;;;;;5106148;28;20023;-59
2022/09/15 09:43:16;;;;;;;2.83;0.80;;;24.10;60.00;;;;;;5106056;28;20020;-60
2022/09/15 09:45:41;;;;;;;1.63;0.95;;;24.10;59.40;;;;;;5105948;28;20353;-61
2022/09/15 09:48:20;;;;;;;3.08;1.00;;;24.10;59.40;;;;;;5105359;28;20024;-59
2022/09/15 09:50:48;;;;;;;2.45;0.88;;;24.10;59.40;;;;;;5105453;28;20012;-59
2022/09/15 09:53:19;;;;;;;3.60;1.08;;;24.10;59.40;;;;;;5105332;28;20023;-58
2022/09/15 09:55:44;;;;;;;3.15;1.38;;;24.10;59.40;;;;;;5105814;28;20023;-60
2022/09/15 09:58:19;;;;;;;1.90;0.80;;;24.10;59.30;;;;;;5105913;28;20016;-59
2022/09/15 10:00:46;;;;;;;3.80;1.02;;;24.20;59.30;;;;;;5105985;28;20020;-59
2022/09/15 10:03:19;;;;;;;2.15;1.05;;;24.20;59.30;;;;;;5105129;28;20308;-59
2022/09/15 10:06:01;;;;;;;1.88;0.95;;;24.20;60.90;;;;;;5105892;28;20020;-59
2022/09/15 10:08:27;;;;;;;3.80;1.27;;;24.20;61.30;;;;;;5105214;28;20032;-60
2022/09/15 10:10:58;;;;;;;5.78;1.67;;;24.20;61.80;;;;;;5105437;28;20097;-59
2022/09/15 10:13:24;;;;;;;3.00;0.88;;;24.20;61.90;;;;;;5105509;28;20050;-59
2022/09/15 10:15:59;;;;;;;5.93;1.58;;;24.20;62.20;;;;;;5105365;28;20016;-59
2022/09/15 10:18:27;;;;;;;5.82;1.15;;;24.30;62.50;;;;;;5105008;28;20023;-59
2022/09/15 10:20:53;;;;;;;4.20;1.00;;;24.30;63.00;;;;;;5105306;28;20016;-59
2022/09/15 10:23:20;;;;;;;6.20;1.35;;;24.30;63.00;;;;;;5104824;28;20019;-59
2022/09/15 10:25:46;;;;;;;7.85;1.42;;;24.20;63.60;;;;;;5105299;28;20083;-59
2022/09/15 10:28:22;;;;;;;4.30;1.55;;;24.30;64.30;;;;;;5105282;28;20083;-59
2022/09/15 10:31:12;;;;;;;3.65;1.00;;;24.30;65.10;;;;;;5105318;28;20043;-60
2022/09/15 10:33:46;;;;;;;5.80;1.48;;;24.30;65.70;;;;;;5104674;28;20460;-59
2022/09/15 10:36:43;;;;;;;7.20;1.02;;;24.20;66.10;;;;;;5104998;28;20019;-58
2022/09/15 10:39:47;;;;;;;13.57;1.27;;;24.20;66.90;;;;;;5086908;28;20024;-58
2022/09/15 10:42:13;;;;;;;4.57;1.08;;;24.20;67.90;;;;;;5087219;28;20286;-60
2022/09/15 10:45:19;;;;;;;4.95;1.10;;;24.20;66.80;;;;;;5100987;28;20023;-58
2022/09/15 10:47:53;;;;;;;6.68;1.38;;;24.30;66.90;;;;;;5070093;28;20368;-58
2022/09/15 10:50:47;;;;;;;8.27;1.23;;;24.30;68.00;;;;;;5084616;28;20022;-58
2022/09/15 10:53:33;;;;;;;7.45;1.25;;;24.30;68.60;;;;;;5083284;28;20110;-59
2022/09/15 10:56:28;;;;;;;9.32;1.25;;;24.30;68.70;;;;;;5084396;28;20040;-60
2022/09/15 10:59:02;;;;;;;7.20;1.20;;;24.30;69.30;;;;;;5084443;28;20031;-59
2022/09/15 11:01:49;;;;;;;7.93;1.15;;;24.30;69.30;;;;;;5084210;28;20024;-61
2022/09/15 11:04:24;;;;;;;3.63;1.08;;;24.30;68.70;;;;;;5083781;28;20017;-60
2022/09/15 11:07:01;;;;;;;6.30;1.15;;;24.30;67.90;;;;;;5084545;28;20029;-58
2022/09/15 11:09:38;;;;;;;4.68;1.20;;;24.20;68.40;;;;;;5083686;28;20055;-59
2022/09/15 11:12:29;;;;;;;3.60;1.15;;;24.20;59.20;;;;;;5083102;28;20344;-59
2022/09/15 11:15:01;;;;;;;3.22;1.05;;;24.20;60.20;;;;;;5084016;28;20217;-60
2022/09/15 11:17:51;;;;;;;5.32;1.30;;;24.20;60.30;;;;;;5083488;28;20033;-60
2022/09/15 11:20:28;;;;;;;9.93;1.38;;;24.20;60.40;;;;;;5083883;28;20035;-59
2022/09/15 11:23:06;;;;;;;13.00;1.30;;;24.20;60.50;;;;;;5083548;28;20275;-59
2022/09/15 11:25:34;;;;;;;6.43;1.27;;;24.20;60.50;;;;;;5084006;28;20040;-59
2022/09/15 11:28:19;;;;;;;11.25;1.48;;;24.20;60.60;;;;;;5083777;28;20020;-60
2022/09/15 11:31:02;;;;;;;7.53;1.75;;;24.10;60.30;;;;;;5082787;28;20049;-59
2022/09/15 11:33:36;;;;;;;12.60;1.98;;;24.20;60.30;;;;;;5083231;28;20024;-59
2022/09/15 11:36:14;;;;;;;7.57;1.50;;;24.20;60.30;;;;;;5083602;28;20071;-59
2022/09/15 11:39:15;;;;;;;6.45;1.30;;;24.10;60.20;;;;;;5083241;28;20024;-58
2022/09/15 11:41:55;;;;;;;6.70;1.45;;;24.20;60.20;;;;;;5079532;28;20039;-58
2022/09/15 11:44:38;;;;;;;4.30;1.63;;;24.20;60.30;;;;;;5083847;28;20189;-59
2022/09/15 11:47:12;;;;;;;8.30;1.60;;;24.20;60.20;;;;;;5083137;28;20017;-59
2022/09/15 11:50:13;;;;;;;15.05;2.45;;;24.20;60.60;;;;;;5083623;28;20027;-60
2022/09/15 11:53:00;;;;;;;9.18;1.15;;;24.20;60.30;;;;;;5040478;28;20029;-59
2022/09/15 11:55:29;;;;;;;6.10;1.80;;;24.20;60.20;;;;;;5083471;28;20047;-60
2022/09/15 11:58:00;;;;;;;7.55;1.73;;;24.20;60.30;;;;;;5083647;28;20017;-60
2022/09/15 12:00:26;;;;;;;15.27;2.50;;;24.20;60.40;;;;;;5083432;28;20016;-61
2022/09/15 12:03:04;;;;;;;10.23;1.30;;;24.20;60.40;;;;;;5083192;28;20336;-60
2022/09/15 12:05:39;;;;;;;9.60;1.60;;;24.20;60.50;;;;;;5083355;28;20017;-59
2022/09/15 12:08:17;;;;;;;15.05;2.50;;;24.10;60.80;;;;;;5064866;28;20021;-62
2022/09/15 12:10:48;;;;;;;7.13;1.70;;;24.10;60.80;;;;;;5083036;28;20036;-61
2022/09/15 12:13:17;;;;;;;8.85;1.90;;;24.10;61.10;;;;;;5075742;28;20036;-62
2022/09/15 12:15:44;;;;;;;13.80;2.22;;;24.10;61.30;;;;;;5063072;28;20016;-62
2022/09/15 12:18:32;;;;;;;8.88;2.40;;;24.10;61.40;;;;;;5072267;28;20034;-60
2022/09/15 12:21:05;;;;;;;;;;;24.10;61.20;;;;;;5082529;28;20032;-60
2022/09/15 12:23:38;;;;;;;8.32;1.75;;;24.10;61.00;;;;;;5081708;28;20065;-62
2022/09/15 12:26:22;;;;;;;8.85;2.00;;;24.20;61.50;;;;;;5082206;28;20058;-61
2022/09/15 12:29:02;;;;;;;4.05;1.48;;;24.20;61.40;;;;;;5083036;28;20020;-61
2022/09/15 12:31:30;;;;;;;7.47;2.05;;;24.20;63.80;;;;;;5083085;28;20062;-59
2022/09/15 12:34:29;;;;;;;14.23;2.08;;;24.20;64.00;;;;;;5083189;28;20025;-60
2022/09/15 12:37:09;;;;;;;5.15;1.42;;;24.20;63.70;;;;;;5083030;28;20028;-60
2022/09/15 12:39:45;;;;;;;12.45;1.90;;;24.20;63.00;;;;;;5083224;28;20212;-60
2022/09/15 12:42:23;;;;;;;12.07;2.38;;;24.20;62.80;;;;;;5083141;28;20092;-60
2022/09/15 12:45:11;;;;;;;6.20;1.52;;;24.20;63.30;;;;;;5083204;28;20013;-60
2022/09/15 12:47:47;;;;;;;7.18;1.65;;;24.20;62.60;;;;;;5083231;28;20071;-60
2022/09/15 12:50:13;;;;;;;10.00;1.70;;;24.20;62.40;;;;;;5083163;28;20087;-62
2022/09/15 12:52:57;;;;;;;6.20;2.05;;;24.20;62.20;;;;;;5083128;28;20213;-60
2022/09/15 12:55:34;;;;;;;5.70;1.80;;;24.20;62.00;;;;;;5083109;28;20055;-61
2022/09/15 12:58:07;;;;;;;9.70;1.95;;;24.20;62.00;;;;;;5083095;28;20020;-61
2022/09/15 13:00:36;;;;;;;9.55;1.92;;;24.20;62.00;;;;;;5083075;28;20024;-61
2022/09/15 13:03:05;;;;;;;3.83;1.10;;;24.20;62.10;;;;;;5082985;28;20025;-60
2022/09/15 13:05:44;;;;;;;6.80;1.67;;;24.20;61.90;;;;;;5083032;28;20027;-61
2022/09/15 13:08:21;;;;;;;6.65;1.92;;;24.20;61.80;;;;;;5082970;28;20017;-61
2022/09/15 13:11:24;;;;;;;5.68;1.95;;;24.20;61.90;;;;;;5082738;28;20041;-60
2022/09/15 13:14:06;;;;;;;6.70;2.80;;;24.20;61.80;;;;;;5082917;28;20074;-60
2022/09/15 13:16:51;;;;;;;4.18;2.35;;;24.20;62.00;;;;;;5082903;28;20019;-59